Time;durP1;ratioP1;P1;durP2;ratioP2;P2;SDS_P1;SDS_P2;PMS_P1;PMS_P2;Temp;Humidity;BMP_temperature;BMP_pressure;BME280_temperature;BME280_humidity;BME280_pressure;Samples;Min_cycle;Max_cycle;Signal;HPM_P1;HPM_P2
2022/08/17 00:01:32;;;;;;;;;;;;;;;19.35;nan;100862.13;5054685;28;19917;-62
2022/08/17 00:03:57;;;;;;;;;;;;;;;19.34;nan;100865.78;5054668;28;19917;-61
2022/08/17 00:06:27;;;;;;;;;;;;;;;19.33;nan;100856.06;5053390;28;19951;-61
2022/08/17 00:08:57;;;;;;;;;;;;;;;19.33;nan;100861.41;5053271;28;19931;-61
2022/08/17 00:11:24;;;;;;;;;;;;;;;19.34;nan;100855.13;5054887;28;19917;-61
2022/08/17 00:13:53;;;;;;;;;;;;;;;19.38;nan;100856.59;5054638;28;19935;-62
2022/08/17 00:16:21;;;;;;;;;;;;;;;19.40;nan;100857.41;5053042;28;19912;-61
2022/08/17 00:18:46;;;;;;;;;;;;;;;19.42;nan;100849.25;5055233;28;20282;-61
2022/08/17 00:21:12;;;;;;;;;;;;;;;19.46;nan;100848.09;5054500;28;20015;-61
2022/08/17 00:23:39;;;;;;;;;;;;;;;19.49;nan;100847.91;5054109;28;19967;-62
2022/08/17 00:26:04;;;;;;;;;;;;;;;19.50;nan;100846.91;5054400;28;20318;-60
2022/08/17 00:28:29;;;;;;;;;;;;;;;19.49;nan;100843.41;5055856;28;19923;-61
2022/08/17 00:30:54;;;;;;;;;;;;;;;19.50;nan;100844.25;5054034;28;19917;-62
2022/08/17 00:33:24;;;;;;;;;;;;;;;19.54;nan;100843.09;5053986;28;20007;-61
2022/08/17 00:35:49;;;;;;;;;;;;;;;19.53;nan;100844.03;5054079;28;20415;-65
2022/08/17 00:38:15;;;;;;;;;;;;;;;19.50;nan;100839.78;5053878;28;19965;-61
2022/08/17 00:40:40;;;;;;;;;;;;;;;19.49;nan;100839.88;5054360;28;19917;-62
2022/08/17 00:43:07;;;;;;;;;;;;;;;19.49;nan;100845.22;5053941;28;19908;-60
2022/08/17 00:45:33;;;;;;;;;;;;;;;19.47;nan;100834.63;5053787;28;19940;-61
2022/08/17 00:47:58;;;;;;;;;;;;;;;19.47;nan;100834.63;5053721;28;19968;-61
2022/08/17 00:50:23;;;;;;;;;;;;;;;19.48;nan;100833.69;5053486;28;19927;-63
2022/08/17 00:52:53;;;;;;;;;;;;;;;19.48;nan;100830.16;5053474;28;19917;-64
2022/08/17 00:55:18;;;;;;;;;;;;;;;19.50;nan;100830.91;5053621;28;19996;-63
2022/08/17 00:57:45;;;;;;;;;;;;;;;19.51;nan;100825.47;5052341;28;19920;-62
2022/08/17 01:00:12;;;;;;;;;;;;;;;19.53;nan;100826.22;5052259;28;20357;-62
2022/08/17 01:02:39;;;;;;;;;;;;;;;19.57;nan;100825.03;5052154;28;19912;-64
2022/08/17 01:05:05;;;;;;;;;;;;;;;19.60;nan;100822.16;5052250;28;19912;-62
2022/08/17 01:07:30;;;;;;;;;;;;;;;19.61;nan;100820.34;5051762;28;19912;-60
2022/08/17 01:09:56;;;;;;;;;;;;;;;19.63;nan;100821.09;5052947;28;19913;-62
2022/08/17 01:12:21;;;;;;;;;;;;;;;19.64;nan;100818.28;5053368;28;19916;-62
2022/08/17 01:14:46;;;;;;;;;;;;;;;19.64;nan;100815.63;5053165;28;19916;-63
2022/08/17 01:17:11;;;;;;;;;;;;;;;19.60;nan;100824.84;5052992;28;20294;-62
2022/08/17 01:19:38;;;;;;;;;;;;;;;19.58;nan;100818.72;5053065;28;20368;-62
2022/08/17 01:22:15;;;;;;;;;;;;;;;19.57;nan;100826.84;5051962;28;19920;-63
2022/08/17 01:25:01;;;;;;;;;;;;;;;19.54;nan;100821.72;5053205;28;19908;-61
2022/08/17 01:27:26;;;;;;;;;;;;;;;19.51;nan;100827.28;5052486;28;19912;-62
2022/08/17 01:29:53;;;;;;;;;;;;;;;19.49;nan;100830.06;5051614;28;19924;-62
2022/08/17 01:32:18;;;;;;;;;;;;;;;19.46;nan;100830.28;5035043;28;20398;-62
2022/08/17 01:34:44;;;;;;;;;;;;;;;19.47;nan;100833.78;5052757;28;19948;-64
2022/08/17 01:37:10;;;;;;;;;;;;;;;19.48;nan;100841.69;5051791;28;20295;-63
2022/08/17 01:39:37;;;;;;;;;;;;;;;19.49;nan;100859.44;5051826;28;19917;-62
2022/08/17 01:42:08;;;;;;;;;;;;;;;19.53;nan;100897.44;5052708;28;20399;-62
2022/08/17 01:44:34;;;;;;;;;;;;;;;19.53;nan;100911.66;5052692;28;19935;-63
2022/08/17 01:46:59;;;;;;;;;;;;;;;19.56;nan;100903.44;5051471;28;20394;-62
2022/08/17 01:49:24;;;;;;;;;;;;;;;19.59;nan;100910.38;5052844;28;19916;-60
2022/08/17 01:51:49;;;;;;;;;;;;;;;19.60;nan;100912.94;5052868;28;20353;-61
2022/08/17 01:54:16;;;;;;;;;;;;;;;19.65;nan;100915.28;5051884;28;20448;-64
2022/08/17 01:56:43;;;;;;;;;;;;;;;19.57;nan;100915.81;5052419;28;20354;-61
2022/08/17 01:59:08;;;;;;;;;;;;;;;19.50;nan;100919.00;5050939;28;19974;-63
2022/08/17 02:01:34;;;;;;;;;;;;;;;19.41;nan;100925.81;5051145;28;19920;-59
2022/08/17 02:03:59;;;;;;;;;;;;;;;19.42;nan;100918.69;5052773;28;19931;-62
2022/08/17 02:06:25;;;;;;;;;;;;;;;19.33;nan;100928.13;5051209;28;19912;-63
2022/08/17 02:08:50;;;;;;;;;;;;;;;19.28;nan;100921.38;5052549;28;20454;-62
2022/08/17 02:11:18;;;;;;;;;;;;;;;19.29;nan;100920.44;5052759;28;19917;-64
2022/08/17 02:13:43;;;;;;;;;;;;;;;19.21;nan;100922.75;5052242;28;20302;-65
2022/08/17 02:16:09;;;;;;;;;;;;;;;19.18;nan;100934.47;5052652;28;19913;-66
2022/08/17 02:18:34;;;;;;;;;;;;;;;19.05;nan;100942.47;5051258;28;20428;-66
2022/08/17 02:20:59;;;;;;;;;;;;;;;19.00;nan;100941.88;5055563;28;20039;-65
2022/08/17 02:23:26;;;;;;;;;;;;;;;18.96;nan;100944.88;5056563;28;19913;-63
2022/08/17 02:25:51;;;;;;;;;;;;;;;18.80;nan;100934.31;5038748;28;20272;-62
2022/08/17 02:28:16;;;;;;;;;;;;;;;;;;5056373;28;19920;-61
2022/08/17 02:30:41;;;;;;;;;;;;;;;;;;5056227;28;19916;-62
2022/08/17 02:33:07;;;;;;;;;;;;;;;;;;5056613;28;19913;-61
2022/08/17 02:35:32;;;;;;;;;;;;;;;;;;5056258;28;19913;-62
2022/08/17 02:37:57;;;;;;;;;;;;;;;;;;5056095;28;19913;-61
2022/08/17 02:40:23;;;;;;;;;;;;;;;18.22;nan;100912.31;5056168;28;19959;-63
2022/08/17 02:42:48;;;;;;;;;;;;;;;18.19;nan;100913.34;5056149;28;19956;-63
2022/08/17 02:45:19;;;;;;;;;;;;;;;18.12;nan;100913.84;5056117;28;19952;-63
2022/08/17 02:47:44;;;;;;;;;;;;;;;18.10;nan;100903.28;5056126;28;19919;-62
2022/08/17 02:50:11;;;;;;;;;;;;;;;18.10;nan;100908.59;5054828;28;20016;-62
2022/08/17 02:52:37;;;;;;;;;;;;;;;18.14;nan;100887.97;5055801;28;20367;-61
2022/08/17 02:55:05;;;;;;;;;;;;;;;18.15;nan;100887.88;5054502;28;19921;-61
2022/08/17 02:57:31;;;;;;;;;;;;;;;18.16;nan;100883.38;5054442;28;19924;-61
2022/08/17 02:59:56;;;;;;;;;;;;;;;18.10;nan;100894.41;5055671;28;19921;-62
2022/08/17 03:02:21;;;;;;;;;;;;;;;18.05;nan;100900.03;5055977;28;19921;-62
2022/08/17 03:04:46;;;;;;;;;;;;;;;18.08;nan;100901.66;5055684;28;19913;-64
2022/08/17 03:07:11;;;;;;;;;;;;;;;18.05;nan;100908.03;5055833;28;20271;-64
2022/08/17 03:09:37;;;;;;;;;;;;;;;18.08;nan;100907.84;5057479;28;20390;-62
2022/08/17 03:12:03;;;;;;;;;;;;;;;18.10;nan;100905.06;5055643;28;19917;-62
2022/08/17 03:14:31;;;;;;;;;;;;;;;18.15;nan;100903.88;5055427;28;20358;-64
2022/08/17 03:16:56;;;;;;;;;;;;;;;18.15;nan;100889.69;5054224;28;19934;-62
2022/08/17 03:19:21;;;;;;;;;;;;;;;18.17;nan;100906.41;5055463;28;19916;-64
2022/08/17 03:21:46;;;;;;;;;;;;;;;18.21;nan;100900.81;5055316;28;19912;-62
2022/08/17 03:24:13;;;;;;;;;;;;;;;18.23;nan;100895.38;5055482;28;19925;-64
2022/08/17 03:26:39;;;;;;;;;;;;;;;18.24;nan;100894.44;5055365;28;19935;-63
2022/08/17 03:29:04;;;;;;;;;;;;;;;18.23;nan;100893.56;5054106;28;20003;-62
2022/08/17 03:31:30;;;;;;;;;;;;;;;18.21;nan;100878.66;5053494;28;19938;-65
2022/08/17 03:33:55;;;;;;;;;;;;;;;18.21;nan;100883.97;5055318;28;20435;-63
2022/08/17 03:36:20;;;;;;;;;;;;;;;18.24;nan;100889.94;5070622;28;19917;-62
2022/08/17 03:38:45;;;;;;;;;;;;;;;18.24;nan;100881.13;5037279;28;19917;-63
2022/08/17 03:41:12;;;;;;;;;;;;;;;18.28;nan;100890.59;5055533;28;20405;-62
2022/08/17 03:43:37;;;;;;;;;;;;;;;18.31;nan;100888.59;5055571;28;19912;-65
2022/08/17 03:57:08;;;;;;;;;;;;;;;18.33;nan;100884.03;5054525;28;19963;-62
2022/08/17 03:59:34;;;;;;;;;;;;;;;18.35;nan;100884.81;5055313;28;19952;-63
2022/08/17 04:02:02;;;;;;;;;;;;;;;18.38;nan;100889.09;5054486;28;19963;-66
2022/08/17 04:04:27;;;;;;;;;;;;;;;18.40;nan;100881.84;5054321;28;19912;-63
2022/08/17 04:06:53;;;;;;;;;;;;;;;18.43;nan;100876.31;5054819;28;19909;-61
2022/08/17 04:09:18;;;;;;;;;;;;;;;18.45;nan;100875.25;5054709;28;19974;-61
2022/08/17 04:11:43;;;;;;;;;;;;;;;18.47;nan;100862.72;5054594;28;19917;-61
2022/08/17 04:14:09;;;;;;;;;;;;;;;18.47;nan;100859.19;5054477;28;19924;-64
2022/08/17 04:16:34;;;;;;;;;;;;;;;18.50;nan;100867.00;5054269;28;19919;-62
2022/08/17 04:18:59;;;;;;;;;;;;;;;18.49;nan;100852.81;5054146;28;19923;-62
2022/08/17 04:21:25;;;;;;;;;;;;;;;18.46;nan;100850.31;5052819;28;19921;-61
2022/08/17 04:23:50;;;;;;;;;;;;;;;18.45;nan;100855.72;5052856;28;19912;-63
2022/08/17 04:26:15;;;;;;;;;;;;;;;18.45;nan;100858.41;5054106;28;20410;-63
2022/08/17 04:28:41;;;;;;;;;;;;;;;18.43;nan;100855.00;5054162;28;19913;-65
2022/08/17 04:31:08;;;;;;;;;;;;;;;18.44;nan;100849.56;5052808;28;19917;-61
2022/08/17 04:33:33;;;;;;;;;;;;;;;18.42;nan;100853.25;5053933;28;19912;-62
2022/08/17 04:35:59;;;;;;;;;;;;;;;18.39;nan;100859.66;5054190;28;20536;-61
2022/08/17 04:38:25;;;;;;;;;;;;;;;18.38;nan;100852.63;5052750;28;19958;-60
2022/08/17 04:43:34;;;;;;;;;;;;;;;18.34;nan;100863.56;5053223;28;20283;-61
2022/08/17 04:46:01;;;;;;;;;;;;;;;18.32;nan;100849.50;5053781;28;20011;-61
2022/08/17 04:48:27;;;;;;;;;;;;;;;18.33;nan;100849.38;5052472;28;19912;-61
2022/08/17 04:50:52;;;;;;;;;;;;;;;18.32;nan;100853.03;5053822;28;19925;-61
2022/08/17 04:53:18;;;;;;;;;;;;;;;18.34;nan;100853.78;5053737;28;19924;-60
2022/08/17 04:55:43;;;;;;;;;;;;;;;18.36;nan;100849.19;5052398;28;20015;-61
2022/08/17 04:58:09;;;;;;;;;;;;;;;18.37;nan;100858.03;5053480;28;20028;-63
2022/08/17 05:00:34;;;;;;;;;;;;;;;18.39;nan;100849.00;5053399;28;19937;-61
2022/08/17 05:03:00;;;;;;;;;;;;;;;18.42;nan;100845.28;5052318;28;19963;-60
2022/08/17 05:05:29;;;;;;;;;;;;;;;18.43;nan;100847.84;5053625;28;19963;-61
2022/08/17 05:07:55;;;;;;;;;;;;;;;18.47;nan;100853.84;5053504;28;19944;-61
2022/08/17 05:10:20;;;;;;;;;;;;;;;18.47;nan;100853.84;5053363;28;20010;-62
2022/08/17 05:12:46;;;;;;;;;;;;;;;18.52;nan;100857.97;5053417;28;19917;-61
2022/08/17 05:15:14;;;;;;;;;;;;;;;18.54;nan;100858.69;5052099;28;19919;-61
2022/08/17 05:17:39;;;;;;;;;;;;;;;18.57;nan;100856.78;5053168;28;19912;-62
2022/08/17 05:20:05;;;;;;;;;;;;;;;18.59;nan;100847.75;5052253;28;20371;-61
2022/08/17 05:22:30;;;;;;;;;;;;;;;18.59;nan;100850.44;5053027;28;20375;-62
2022/08/17 05:24:55;;;;;;;;;;;;;;;18.58;nan;100854.03;5053529;28;19923;-61
2022/08/17 05:27:21;;;;;;;;;;;;;;;18.59;nan;100845.09;5053106;28;20327;-60
2022/08/17 05:29:46;;;;;;;;;;;;;;;18.60;nan;100861.91;5053049;28;20389;-64
2022/08/17 05:32:12;;;;;;;;;;;;;;;18.61;nan;100858.31;5052879;28;20011;-63
2022/08/17 05:34:38;;;;;;;;;;;;;;;18.37;nan;100818.06;5035819;28;20290;-62
2022/08/17 05:37:03;;;;;;;;;;;;;;;18.59;nan;100861.09;5053045;28;19912;-61
2022/08/17 05:39:28;;;;;;;;;;;;;;;18.62;nan;100860.88;5051691;28;19963;-61
2022/08/17 05:41:53;;;;;;;;;;;;;;;18.64;nan;100869.63;5052907;28;19916;-62
2022/08/17 05:44:19;;;;;;;;;;;;;;;18.66;nan;100869.53;5052889;28;19917;-61
2022/08/17 05:46:48;;;;;;;;;;;;;;;18.69;nan;100872.84;5054249;28;19920;-61
2022/08/17 05:49:13;;;;;;;;;;;;;;;18.71;nan;100872.75;5051695;28;19920;-61
2022/08/17 05:51:57;;;;;;;;;;;;;;;18.76;nan;100876.84;5034660;28;19950;-63
2022/08/17 05:54:41;;;;;;;;;;;;;;;18.76;nan;100871.50;5050863;28;19916;-64
2022/08/17 05:57:09;;;;;;;;;;;;;;;18.81;nan;100888.03;5052335;28;19913;-64
2022/08/17 05:59:43;;;;;;;;;;;;;;;18.83;nan;100890.59;5052645;28;19966;-61
2022/08/17 06:02:08;;;;;;;;;;;;;;;18.86;nan;100893.94;5034931;28;19912;-63
2022/08/17 06:04:33;;;;;;;;;;;;;;;18.85;nan;100897.56;5052554;28;20359;-62
2022/08/17 06:07:10;;;;;;;;;;;;;;;18.90;nan;100897.25;5052551;28;19919;-62
2022/08/17 06:09:36;;;;;;;;;;;;;;;18.93;nan;100905.91;5051222;28;19913;-64
2022/08/17 06:12:37;;;;;;;;;;;;;;;18.99;nan;100892.19;5052654;28;20069;-63
2022/08/17 06:15:09;;;;;;;;;;;;;;;19.02;nan;100891.97;5010533;28;20030;-64
2022/08/17 06:17:35;;;;;;;;;;;;;;;19.08;nan;100883.56;5041404;28;19913;-63
2022/08/17 06:20:05;;;;;;;;;;;;;;;19.16;nan;100885.72;5051161;28;19912;-63
2022/08/17 06:22:32;;;;;;;;;;;;;;;19.19;nan;100879.31;5051424;28;19928;-61
2022/08/17 06:25:05;;;;;;;;;;;;;;;19.24;nan;100885.19;5051352;28;20294;-61
2022/08/17 06:27:30;;;;;;;;;;;;;;;19.26;nan;100888.63;5051178;28;20375;-60
2022/08/17 06:30:04;;;;;;;;;;;;;;;19.38;nan;100891.28;5052797;28;19999;-63
2022/08/17 06:32:30;;;;;;;;;;;;;;;19.50;nan;100889.63;5052253;28;19920;-61
2022/08/17 06:34:56;;;;;;;;;;;;;;;19.54;nan;100893.81;5054348;28;19917;-61
2022/08/17 06:37:24;;;;;;;;;;;;;;;19.64;nan;100892.25;5051406;28;19967;-63
2022/08/17 06:40:09;;;;;;;;;;;;;;;19.70;nan;100888.28;5051027;28;20334;-62
2022/08/17 06:42:39;;;;;;;;;;;;;;;19.74;nan;100885.28;5052219;28;19956;-62
2022/08/17 06:45:04;;;;;;;;;;;;;;;19.75;nan;100894.16;5052186;28;20335;-63
2022/08/17 06:47:40;;;;;;;;;;;;;;;19.87;nan;100901.31;5052098;28;19958;-61
2022/08/17 06:50:13;;;;;;;;;;;;;;;19.86;nan;100899.59;5050803;28;19920;-61
2022/08/17 06:52:43;;;;;;;;;;;;;;;19.84;nan;100899.72;5052174;28;19951;-62
2022/08/17 06:55:13;;;;;;;;;;;;;;;19.78;nan;100897.47;5050935;28;19967;-60
2022/08/17 06:57:48;;;;;;;;;;;;;;;19.79;nan;100904.50;5052211;28;20295;-63
2022/08/17 07:00:17;;;;;;;;;;;;;;;19.69;nan;100903.44;5052184;28;19916;-61
2022/08/17 07:02:51;;;;;;;;;;;;;;;19.70;nan;100907.84;5052169;28;19917;-61
2022/08/17 07:05:17;;;;;;;;;;;;;;;19.79;nan;100909.84;5052174;28;19919;-62
2022/08/17 07:08:10;;;;;;;;;;;;;;;19.80;nan;100919.59;5053242;28;20374;-59
2022/08/17 07:10:38;;;;;;;;;;;;;;;19.75;nan;100913.72;5053846;28;20359;-63
2022/08/17 07:13:12;;;;;;;;;;;;;;;19.80;nan;100927.59;5054575;28;19913;-63
2022/08/17 07:15:41;;;;;;;;;;;;;;;19.81;nan;100933.78;5055403;28;20361;-60
2022/08/17 07:18:06;;;;;;;;;;;;;;;19.75;nan;100929.75;5054145;28;19913;-63
2022/08/17 07:20:32;;;;;;;;;;;;;;;19.77;nan;100926.94;5055814;28;19921;-61
2022/08/17 07:23:03;;;;;;;;;;;;;;;19.79;nan;100933.88;5054291;28;19912;-63
2022/08/17 07:25:29;;;;;;;;;;;;;;;19.77;nan;100941.16;5054064;28;20337;-62
2022/08/17 07:27:59;;;;;;;;;;;;;;;19.71;nan;100938.03;5055393;28;19917;-61
2022/08/17 07:30:27;;;;;;;;;;;;;;;19.59;nan;100945.94;5055250;28;20283;-61
2022/08/17 07:32:58;;;;;;;;;;;;;;;19.57;nan;100953.22;5055170;28;20321;-62
2022/08/17 07:35:29;;;;;;;;;;;;;;;19.48;nan;100953.81;5055261;28;19947;-61
2022/08/17 07:38:13;;;;;;;;;;;;;;;19.45;nan;100956.69;5054814;28;20256;-61
2022/08/17 07:40:44;;;;;;;;;;;;;;;19.48;nan;100959.16;5053751;28;19978;-59
2022/08/17 07:43:15;;;;;;;;;;;;;;;19.52;nan;100960.69;5054871;28;19920;-62
2022/08/17 07:48:37;;;;;;;;;;;;;;;19.56;nan;100953.28;5056484;28;19920;-62
2022/08/17 07:51:25;;;;;;;;;;;;;;;19.62;nan;100955.56;5053835;28;19921;-61
2022/08/17 07:53:52;;;;;;;;;;;;;;;19.67;nan;100947.25;5049304;28;19912;-60
2022/08/17 07:56:30;;;;;;;;;;;;;;;19.75;nan;100939.56;5054995;28;19916;-61
2022/08/17 07:59:05;;;;;;;;;;;;;;;19.84;nan;100934.44;5054793;28;19919;-62
2022/08/17 08:01:33;;;;;;;;;;;;;;;19.85;nan;100946.00;5053570;28;19999;-60
2022/08/17 08:03:59;;;;;;;;;;;;;;;19.88;nan;100948.41;5054606;28;19963;-60
2022/08/17 08:06:25;;;;;;;;;;;;;;;19.92;nan;100952.59;5054891;28;20460;-62
2022/08/17 08:08:54;;;;;;;;;;;;;;;19.91;nan;100950.88;5054668;28;19913;-64
2022/08/17 08:11:32;;;;;;;;;;;;;;;19.88;nan;100954.63;5054773;28;20333;-61
2022/08/17 08:14:18;;;;;;;;;;;;;;;19.95;nan;100953.25;5053224;28;20401;-60
2022/08/17 08:16:55;;;;;;;;;;;;;;;20.15;nan;100949.19;5046856;28;19920;-59
2022/08/17 08:19:20;;;;;;;;;;;;;;;20.42;nan;100955.28;5054089;28;20064;-63
2022/08/17 08:21:47;;;;;;;;;;;;;;;20.74;nan;100952.97;5054415;28;19925;-60
2022/08/17 08:24:15;;;;;;;;;;;;;;;21.17;nan;100948.00;5053123;28;19913;-60
2022/08/17 08:26:48;;;;;;;;;;;;;;;21.43;nan;100970.16;5054248;28;19917;-61
2022/08/17 08:29:13;;;;;;;;;;;;;;;21.42;nan;100977.34;5052919;28;19912;-63
2022/08/17 08:31:43;;;;;;;;;;;;;;;21.28;nan;100985.53;5054286;28;19919;-61
2022/08/17 08:34:22;;;;;;;;;;;;;;;21.35;nan;100984.13;5052737;28;19921;-62
2022/08/17 08:37:05;;;;;;;;;;;;;;;21.15;nan;100993.66;5052752;28;19958;-62
2022/08/17 08:39:50;;;;;;;;;;;;;;;21.21;nan;100992.34;5053883;28;20062;-62
2022/08/17 08:42:15;;;;;;;;;;;;;;;21.34;nan;100994.97;5053766;28;19959;-60
2022/08/17 08:45:04;;;;;;;;;;;;;;;21.19;nan;100999.63;5053916;28;19960;-63
2022/08/17 08:47:44;;;;;;;;;;;;;;;21.15;nan;100999.00;5052380;28;19913;-61
2022/08/17 08:50:18;;;;;;;;;;;;;;;21.00;nan;101008.13;5053631;28;19920;-62
2022/08/17 08:52:43;;;;;;;;;;;;;;;20.84;nan;101001.31;5052875;28;20011;-61
2022/08/17 08:55:11;;;;;;;;;;;;;;;20.74;nan;101001.13;5051533;28;20020;-61
2022/08/17 08:57:38;;;;;;;;;;;;;;;20.59;nan;101007.56;5051693;28;19913;-63
2022/08/17 09:00:14;;;;;;;;;;;;;;;20.49;nan;101004.69;5052985;28;20009;-64
2022/08/17 09:02:54;;;;;;;;;;;;;;;20.45;nan;101007.69;5051911;28;19913;-62
2022/08/17 09:05:38;;;;;;;;;;;;;;;20.35;nan;101017.31;5052945;28;19920;-62
2022/08/17 09:08:03;;;;;;;;;;;;;;;20.25;nan;101038.50;5052092;28;19939;-61
2022/08/17 09:10:33;;;;;;;;;;;;;;;20.26;nan;101042.88;5053418;28;19912;-61
2022/08/17 09:12:59;;;;;;;;;;;;;;;20.28;nan;101038.28;5052159;28;20398;-61
2022/08/17 09:15:32;;;;;;;;;;;;;;;20.24;nan;101044.75;5053390;28;19955;-60
2022/08/17 09:18:06;;;;;;;;;;;;;;;20.20;nan;101051.28;5053351;28;19935;-60
2022/08/17 09:20:41;;;;;;;;;;;;;;;20.23;nan;101051.06;5052000;28;19921;-61
2022/08/17 09:23:08;;;;;;;;;;;;;;;20.19;nan;101053.13;5051766;28;20003;-57
2022/08/17 09:25:48;;;;;;;;;;;;;;;20.09;nan;101056.50;5052083;28;20049;-58
2022/08/17 09:28:18;;;;;;;;;;;;;;;19.99;nan;101050.91;5053152;28;19931;-57
2022/08/17 09:30:45;;;;;;;;;;;;;;;19.89;nan;101038.31;5052594;28;19919;-59
2022/08/17 09:33:10;;;;;;;;;;;;;;;19.84;nan;101043.97;5052887;28;19912;-59
2022/08/17 09:36:02;;;;;;;;;;;;;;;19.80;nan;101038.91;5051693;28;20263;-60
2022/08/17 09:38:27;;;;;;;;;;;;;;;19.83;nan;101049.41;5050637;28;20003;-60
2022/08/17 09:40:58;;;;;;;;;;;;;;;19.76;nan;101056.13;5052886;28;20030;-57
2022/08/17 09:43:45;;;;;;;;;;;;;;;19.75;nan;101057.94;5034991;28;19913;-60
2022/08/17 09:46:31;;;;;;;;;;;;;;;19.67;nan;101054.94;5052747;28;19913;-58
2022/08/17 09:48:57;;;;;;;;;;;;;;;19.65;nan;101060.34;5050953;28;19912;-60
2022/08/17 09:51:34;;;;;;;;;;;;;;;19.71;nan;101060.91;5052729;28;19978;-58
2022/08/17 09:53:59;;;;;;;;;;;;;;;19.78;nan;101055.06;5034865;28;20280;-58
2022/08/17 09:56:38;;;;;;;;;;;;;;;19.78;nan;101047.06;5052234;28;20000;-59
2022/08/17 09:59:15;;;;;;;;;;;;;;;19.89;nan;101049.84;5051327;28;20413;-60
2022/08/17 10:01:42;;;;;;;;;;;;;;;19.79;nan;101056.75;5052661;28;19916;-60
2022/08/17 10:04:22;;;;;;;;;;;;;;;19.81;nan;101052.19;5034645;28;19919;-59
2022/08/17 10:06:51;;;;;;;;;;;;;;;19.86;nan;101051.88;5052620;28;19916;-60
2022/08/17 10:09:21;;;;;;;;;;;;;;;19.88;nan;101049.94;5051522;28;19959;-60
2022/08/17 10:14:33;;;;;;;;;;;;;;;19.91;nan;101047.06;5051377;28;19919;-60
2022/08/17 10:17:01;;;;;;;;;;;;;;;19.92;nan;101043.44;5052596;28;19913;-63
2022/08/17 10:19:27;;;;;;;;;;;;;;;20.08;nan;101036.09;5052429;28;19919;-60
2022/08/17 10:27:22;;;;;;;;;;;;;;;20.73;nan;101040.38;5051266;28;20136;-61
2022/08/17 10:29:53;;;;;;;;;;;;;;;20.90;nan;101039.16;5051266;28;19919;-60
2022/08/17 10:32:31;;;;;;;;;;;;;;;20.95;nan;101042.41;5051102;28;20350;-60
2022/08/17 10:34:57;;;;;;;;;;;;;;;20.98;nan;101041.31;5052474;28;19955;-62
2022/08/17 10:37:34;;;;;;;;;;;;;;;21.05;nan;101047.91;5052179;28;20325;-62
2022/08/17 10:40:18;;;;;;;;;;;;;;;21.01;nan;101047.31;5051945;28;20451;-60
2022/08/17 10:42:57;;;;;;;;;;;;;;;20.89;nan;101052.69;5054945;28;19948;-64
2022/08/17 10:45:43;;;;;;;;;;;;;;;20.97;nan;101052.97;5054928;28;19969;-63
2022/08/17 10:48:08;;;;;;;;;;;;;;;21.02;nan;101048.13;5056096;28;20699;-58
2022/08/17 10:50:52;;;;;;;;;;;;;;;21.03;nan;101052.53;5055639;28;20367;-61
2022/08/17 10:53:39;;;;;;;;;;;;;;;20.91;nan;101048.91;5055883;28;19908;-60
2022/08/17 10:56:10;;;;;;;;;;;;;;;20.75;nan;101045.66;5055631;28;20378;-63
2022/08/17 10:58:49;;;;;;;;;;;;;;;20.70;nan;101048.63;5055470;28;19913;-61
2022/08/17 11:01:15;;;;;;;;;;;;;;;20.75;nan;101029.59;5054359;28;20311;-61
2022/08/17 11:03:51;;;;;;;;;;;;;;;20.84;nan;101023.56;5055820;28;19917;-61
2022/08/17 11:06:20;;;;;;;;;;;;;;;21.00;nan;101028.66;5056750;28;19919;-59
2022/08/17 11:08:51;;;;;;;;;;;;;;;21.11;nan;101015.38;5055638;28;19920;-60
2022/08/17 11:11:22;;;;;;;;;;;;;;;21.21;nan;101016.44;5055608;28;20241;-61
2022/08/17 11:13:47;;;;;;;;;;;;;;;21.23;nan;101030.56;5054685;28;19913;-61
2022/08/17 11:16:24;;;;;;;;;;;;;;;21.26;nan;101031.19;5055554;28;19913;-59
2022/08/17 11:18:52;;;;;;;;;;;;;;;21.31;nan;101037.03;5055492;28;19915;-60
2022/08/17 11:21:28;;;;;;;;;;;;;;;21.34;nan;101040.50;5055767;28;19940;-59
2022/08/17 11:24:04;;;;;;;;;;;;;;;21.37;nan;101040.22;5055424;28;19913;-59
2022/08/17 11:26:33;;;;;;;;;;;;;;;21.37;nan;101045.59;5037641;28;19913;-60
2022/08/17 11:29:00;;;;;;;;;;;;;;;21.45;nan;101037.88;5053966;28;19920;-59
2022/08/17 11:31:25;;;;;;;;;;;;;;;21.38;nan;101053.53;5054027;28;19971;-60
2022/08/17 11:34:10;;;;;;;;;;;;;;;21.34;nan;101062.75;5055327;28;19944;-60
2022/08/17 11:36:36;;;;;;;;;;;;;;;21.40;nan;101073.00;5047661;28;19935;-60
2022/08/17 11:39:13;;;;;;;;;;;;;;;21.33;nan;101071.75;5055375;28;20363;-59
2022/08/17 11:41:49;;;;;;;;;;;;;;;21.31;nan;101077.22;5054035;28;19913;-56
2022/08/17 11:44:17;;;;;;;;;;;;;;;21.18;nan;101081.75;5053788;28;19913;-59
2022/08/17 11:52:36;;;;;;;;;;;;;;;21.04;nan;101089.03;5053298;28;19923;-61
2022/08/17 11:55:02;;;;;;;;;;;;;;;21.00;nan;101082.19;5053645;28;20394;-61
2022/08/17 11:57:28;;;;;;;;;;;;;;;20.94;nan;101071.91;5054315;28;19917;-58
2022/08/17 11:59:57;;;;;;;;;;;;;;;20.91;nan;101082.84;5054827;28;19913;-62
2022/08/17 12:02:26;;;;;;;;;;;;;;;20.89;nan;101079.44;5054641;28;20011;-59
2022/08/17 12:05:03;;;;;;;;;;;;;;;20.84;nan;101073.56;5054644;28;19916;-63
2022/08/17 12:07:31;;;;;;;;;;;;;;;20.80;nan;101064.03;5053194;28;19962;-62
2022/08/17 12:09:57;;;;;;;;;;;;;;;20.75;nan;101053.66;5053179;28;20295;-62
2022/08/17 12:12:28;;;;;;;;;;;;;;;20.66;nan;101057.00;5053349;28;20155;-66
2022/08/17 12:14:56;;;;;;;;;;;;;;;20.53;nan;101054.31;5053367;28;19913;-63
2022/08/17 12:17:22;;;;;;;;;;;;;;;20.57;nan;101057.63;5054246;28;19982;-61
2022/08/17 12:19:47;;;;;;;;;;;;;;;20.57;nan;101046.94;5054099;28;19921;-62
2022/08/17 12:22:19;;;;;;;;;;;;;;;20.58;nan;101048.63;5054083;28;20344;-62
2022/08/17 12:24:47;;;;;;;;;;;;;;;20.54;nan;101047.16;5053029;28;19912;-64
2022/08/17 12:27:18;;;;;;;;;;;;;;;20.51;nan;101044.69;5053985;28;20367;-62
2022/08/17 12:29:43;;;;;;;;;;;;;;;20.48;nan;101043.09;5054310;28;19917;-60
2022/08/17 12:32:12;;;;;;;;;;;;;;;20.46;nan;101038.81;5054164;28;20338;-62
2022/08/17 12:34:39;;;;;;;;;;;;;;;20.49;nan;101039.44;5052755;28;19919;-64
2022/08/17 12:37:25;;;;;;;;;;;;;;;20.45;nan;101042.44;5052662;28;19959;-61
2022/08/17 12:40:25;;;;;;;;;;;;;;;20.46;nan;101036.97;5053402;28;19913;-60
2022/08/17 12:42:55;;;;;;;;;;;;;;;20.38;nan;101042.00;5011763;28;20295;-60
2022/08/17 12:45:22;;;;;;;;;;;;;;;20.32;nan;101039.75;5046320;28;19913;-60
2022/08/17 12:47:47;;;;;;;;;;;;;;;20.28;nan;101046.31;5052595;28;19913;-61
2022/08/17 12:50:13;;;;;;;;;;;;;;;20.19;nan;101039.75;5052689;28;19916;-59
2022/08/17 12:52:39;;;;;;;;;;;;;;;20.22;nan;101041.34;5052527;28;20361;-61
2022/08/17 12:55:05;;;;;;;;;;;;;;;20.20;nan;101036.09;5053821;28;19924;-62
2022/08/17 12:57:36;;;;;;;;;;;;;;;20.23;nan;101027.88;5053569;28;20221;-59
2022/08/17 13:00:09;;;;;;;;;;;;;;;20.19;nan;101020.19;5054165;28;19951;-61
2022/08/17 13:02:57;;;;;;;;;;;;;;;20.20;nan;101025.41;5054101;28;19974;-60
2022/08/17 13:05:32;;;;;;;;;;;;;;;20.18;nan;101027.34;5046640;28;19917;-59
2022/08/17 13:07:58;;;;;;;;;;;;;;;20.26;nan;101031.34;5053892;28;19912;-60
2022/08/17 13:10:25;;;;;;;;;;;;;;;20.21;nan;101039.63;5051632;28;19912;-62
2022/08/17 13:12:51;;;;;;;;;;;;;;;20.19;nan;101036.22;5051948;28;20378;-63
2022/08/17 13:15:25;;;;;;;;;;;;;;;20.17;nan;101033.63;5053481;28;19979;-63
2022/08/17 13:17:55;;;;;;;;;;;;;;;20.19;nan;101031.72;5053034;28;20002;-60
2022/08/17 13:20:20;;;;;;;;;;;;;;;20.10;nan;101032.38;5053284;28;19974;-63
2022/08/17 13:22:51;;;;;;;;;;;;;;;20.06;nan;101028.19;5052729;28;19916;-60
2022/08/17 13:25:16;;;;;;;;;;;;;;;20.04;nan;101029.25;5053295;28;19912;-60
2022/08/17 13:27:42;;;;;;;;;;;;;;;19.89;nan;101020.47;5053199;28;19908;-59
2022/08/17 13:30:10;;;;;;;;;;;;;;;19.86;nan;101023.34;5035371;28;19970;-59
2022/08/17 13:32:42;;;;;;;;;;;;;;;19.90;nan;101021.31;5051390;28;19909;-61
2022/08/17 13:35:24;;;;;;;;;;;;;;;19.77;nan;101012.41;5051381;28;19912;-61
2022/08/17 13:38:16;;;;;;;;;;;;;;;19.83;nan;101012.00;5052756;28;19920;-60
2022/08/17 13:40:49;;;;;;;;;;;;;;;19.95;nan;101014.69;5036599;28;19913;-60
2022/08/17 13:43:34;;;;;;;;;;;;;;;20.02;nan;101013.31;5051402;28;19919;-59